createdAt,value
2017-09-10T00:00:15.596Z,60.03
2017-09-10T00:00:56.057Z,59.94
2017-09-10T00:01:36.506Z,60.03
2017-09-10T00:02:16.961Z,60.03
2017-09-10T00:02:57.412Z,60.03
2017-09-10T00:03:37.855Z,60.13
2017-09-10T00:04:18.306Z,60.03
2017-09-10T00:04:58.757Z,59.94
2017-09-10T00:05:39.212Z,60.13
2017-09-10T00:06:19.663Z,59.75
2017-09-10T00:07:00.111Z,60.03
2017-09-10T00:07:40.561Z,59.55
2017-09-10T00:08:21.017Z,60.13
2017-09-10T00:09:01.633Z,60.03
2017-09-10T00:09:42.063Z,60.23
2017-09-10T00:10:22.523Z,60.42
2017-09-10T00:11:02.982Z,60.32
2017-09-10T00:11:43.426Z,60.61
2017-09-10T00:12:23.879Z,60.42
2017-09-10T00:13:04.337Z,60.52
2017-09-10T00:13:44.793Z,60.32
2017-09-10T00:14:25.240Z,60.61
2017-09-10T00:15:05.695Z,60.52
2017-09-10T00:15:46.144Z,60.52
2017-09-10T00:16:26.595Z,60.61
2017-09-10T00:17:07.056Z,60.32
2017-09-10T00:17:47.503Z,60.42
2017-09-10T00:18:27.957Z,60.42
2017-09-10T00:19:08.407Z,60.52
2017-09-10T00:19:48.864Z,60.52
2017-09-10T00:20:29.317Z,60.61
2017-09-10T00:21:09.773Z,60.61
2017-09-10T00:21:50.237Z,60.32
2017-09-10T00:22:30.684Z,60.61
2017-09-10T00:23:11.242Z,60.9
2017-09-10T00:23:51.680Z,60.61
2017-09-10T00:24:32.120Z,60.8
2017-09-10T00:25:12.581Z,60.8
2017-09-10T00:27:05.247Z,60.9
2017-09-10T00:27:45.703Z,61
2017-09-10T00:28:26.321Z,60.9
2017-09-10T00:29:06.784Z,61
2017-09-10T00:29:47.234Z,60.8
2017-09-10T00:30:27.690Z,60.8
2017-09-10T00:31:08.139Z,60.71
2017-09-10T00:31:48.595Z,60.77
2017-09-10T00:32:29.047Z,60.77
2017-09-10T00:33:09.512Z,60.58
2017-09-10T00:33:49.967Z,60.58
2017-09-10T00:34:30.479Z,60.61
2017-09-10T00:35:10.990Z,60.97
2017-09-10T00:35:51.461Z,60.97
2017-09-10T00:36:31.909Z,60.97
2017-09-10T00:37:12.359Z,60.97
2017-09-10T00:37:52.819Z,61.35
2017-09-10T00:38:33.269Z,61.25
2017-09-10T00:39:13.722Z,61.48
2017-09-10T00:39:54.171Z,61.38
2017-09-10T00:40:34.613Z,61.29
2017-09-10T00:41:15.153Z,61.38
2017-09-10T00:41:55.705Z,61.29
2017-09-10T00:42:36.153Z,61.29
2017-09-10T00:43:16.612Z,61.29
2017-09-10T00:43:57.086Z,61.29
2017-09-10T00:44:37.536Z,61.48
2017-09-10T00:45:17.985Z,61.38
2017-09-10T00:45:58.451Z,61.29
2017-09-10T00:46:38.900Z,61.38
2017-09-10T00:47:19.347Z,61.19
2017-09-10T00:47:59.803Z,61.1
2017-09-10T00:48:40.322Z,61.29
2017-09-10T00:49:20.919Z,61.1
2017-09-10T00:50:01.397Z,61.1
2017-09-10T00:50:41.833Z,61.29
2017-09-10T00:51:22.283Z,61.29
2017-09-10T00:52:02.751Z,61.58
2017-09-10T00:52:43.201Z,61.48
2017-09-10T00:53:23.676Z,61.48
2017-09-10T00:54:04.136Z,61.38
2017-09-10T00:54:44.592Z,61.48
2017-09-10T00:55:25.053Z,61.48
2017-09-10T00:56:05.577Z,61.29
2017-09-10T00:56:46.030Z,61.58
2017-09-10T00:57:26.640Z,61.48
2017-09-10T00:58:06.960Z,61.38
2017-09-10T00:58:47.407Z,61.38
2017-09-10T00:59:27.854Z,61.19
2017-09-10T01:00:08.309Z,61.29
2017-09-10T01:00:48.777Z,61.19
2017-09-10T01:01:29.188Z,61.38
2017-09-10T01:02:09.618Z,61.38
2017-09-10T01:02:50.100Z,61.38
2017-09-10T01:03:30.535Z,61.48
2017-09-10T01:04:10.978Z,61.38
2017-09-10T01:04:51.456Z,61.38
2017-09-10T01:05:31.914Z,61.38
2017-09-10T01:06:12.420Z,61.19
2017-09-10T01:06:52.825Z,61.19
2017-09-10T01:07:33.283Z,61.19
2017-09-10T01:08:13.748Z,61.38
2017-09-10T01:08:54.324Z,61.29
2017-09-10T01:09:34.745Z,61.1
2017-09-10T01:10:15.197Z,61.29
2017-09-10T01:10:55.754Z,61.58
2017-09-10T01:11:36.211Z,61.68
2017-09-10T01:12:16.686Z,61.68
2017-09-10T01:12:57.119Z,61.77
2017-09-10T01:13:37.579Z,61.58
2017-09-10T01:14:18.030Z,61.68
2017-09-10T01:14:58.486Z,61.38
2017-09-10T01:15:38.935Z,62.06
2017-09-10T01:16:19.393Z,61.87
2017-09-10T01:16:59.845Z,61.38
2017-09-10T01:17:40.300Z,61.77
2017-09-10T01:18:20.759Z,61.77
2017-09-10T01:19:01.273Z,61.96
2017-09-10T01:19:41.762Z,61.96
2017-09-10T01:20:22.172Z,62.25
2017-09-10T01:21:02.632Z,62.45
2017-09-10T01:21:43.084Z,62.45
2017-09-10T01:22:23.543Z,61.96
2017-09-10T01:23:03.990Z,61.96
2017-09-10T01:23:44.442Z,62.15
2017-09-10T01:24:24.976Z,61.96
2017-09-10T01:25:05.428Z,61.96
2017-09-10T01:25:45.882Z,61.96
2017-09-10T01:26:26.393Z,61.96
2017-09-10T01:27:06.860Z,61.96
2017-09-10T01:27:47.310Z,61.96
2017-09-10T01:28:27.768Z,62.15
2017-09-10T01:29:08.215Z,61.96
2017-09-10T01:29:48.683Z,62.06
2017-09-10T01:30:29.133Z,62.06
2017-09-10T01:31:09.589Z,61.96
2017-09-10T01:31:50.043Z,61.96
2017-09-10T01:32:30.499Z,61.96
2017-09-10T01:33:11.045Z,61.96
2017-09-10T01:33:51.501Z,61.96
2017-09-10T01:34:31.957Z,61.96
2017-09-10T01:35:12.411Z,62.06
2017-09-10T01:35:52.869Z,62.06
2017-09-10T01:36:33.319Z,61.96
2017-09-10T01:37:13.774Z,61.96
2017-09-10T01:37:54.231Z,61.77
2017-09-10T01:38:34.680Z,61.96
2017-09-10T01:39:15.133Z,62.06
2017-09-10T01:39:55.584Z,62.06
2017-09-10T01:40:36.035Z,61.87
2017-09-10T01:41:16.484Z,61.77
2017-09-10T01:41:56.941Z,61.96
2017-09-10T01:42:37.389Z,61.87
2017-09-10T01:43:17.837Z,61.68
2017-09-10T01:43:58.294Z,61.77
2017-09-10T01:44:38.744Z,61.77
2017-09-10T01:45:19.196Z,61.68
2017-09-10T01:45:59.648Z,61.77
2017-09-10T01:46:40.108Z,61.87
2017-09-10T01:47:20.575Z,61.87
2017-09-10T01:48:01.032Z,61.87
2017-09-10T01:48:41.485Z,61.68
2017-09-10T01:49:21.936Z,61.77
2017-09-10T01:50:02.390Z,61.77
2017-09-10T01:50:42.842Z,61.87
2017-09-10T01:51:23.299Z,61.96
2017-09-10T01:52:03.756Z,61.77
2017-09-10T01:52:44.214Z,62.06
2017-09-10T01:53:24.673Z,61.96
2017-09-10T01:54:05.122Z,62.06
2017-09-10T01:54:45.590Z,62.06
2017-09-10T01:55:26.050Z,61.87
2017-09-10T01:56:06.503Z,61.96
2017-09-10T01:56:46.968Z,61.96
2017-09-10T01:57:27.418Z,62.06
2017-09-10T01:58:07.857Z,62.06
2017-09-10T01:58:48.313Z,61.87
2017-09-10T01:59:28.773Z,61.87
2017-09-10T02:00:09.231Z,62.06
2017-09-10T02:00:49.713Z,62.45
2017-09-10T02:01:30.169Z,62.45
2017-09-10T02:02:10.619Z,62.45
2017-09-10T02:02:51.074Z,62.45
2017-09-10T02:03:31.532Z,62.25
2017-09-10T02:04:11.992Z,62.45
2017-09-10T02:04:52.440Z,62.35
2017-09-10T02:05:32.897Z,62.45
2017-09-10T02:06:13.351Z,62.54
2017-09-10T02:06:53.816Z,62.54
2017-09-10T02:07:34.366Z,62.45
2017-09-10T02:08:14.824Z,62.35
2017-09-10T02:08:55.282Z,62.54
2017-09-10T02:09:35.741Z,62.45
2017-09-10T02:10:16.200Z,62.63
2017-09-10T02:10:56.642Z,62.35
2017-09-10T02:11:37.092Z,62.73
2017-09-10T02:12:17.546Z,62.45
2017-09-10T02:12:58.000Z,62.45
2017-09-10T02:13:38.451Z,62.45
2017-09-10T02:14:18.905Z,62.54
2017-09-10T02:14:59.360Z,62.45
2017-09-10T02:15:39.818Z,62.54
2017-09-10T02:16:20.270Z,62.45
2017-09-10T02:17:00.723Z,62.45
2017-09-10T02:17:41.180Z,62.54
2017-09-10T02:18:21.632Z,62.45
2017-09-10T02:19:02.084Z,62.45
2017-09-10T02:19:42.538Z,62.15
2017-09-10T02:20:22.981Z,62.25
2017-09-10T02:21:03.436Z,62.25
2017-09-10T02:21:43.891Z,62.15
2017-09-10T02:22:24.347Z,62.15
2017-09-10T02:23:04.804Z,62.15
2017-09-10T02:23:45.257Z,62.12
2017-09-10T02:24:25.708Z,62.35
2017-09-10T02:26:43.493Z,62.51
2017-09-10T02:27:23.938Z,62.51
2017-09-10T02:28:04.397Z,62.54
2017-09-10T02:28:44.855Z,62.45
2017-09-10T02:29:25.305Z,62.51
2017-09-10T02:30:05.755Z,62.54
2017-09-10T02:30:46.203Z,62.45
2017-09-10T02:31:26.682Z,62.25
2017-09-10T02:32:07.205Z,62.15
2017-09-10T02:32:47.660Z,62.06
2017-09-10T02:33:28.106Z,62.35
2017-09-10T02:34:08.571Z,62.12
2017-09-10T02:34:49.022Z,62.12
2017-09-10T02:35:29.475Z,62.12
2017-09-10T02:36:09.930Z,62.32
2017-09-10T02:36:50.384Z,62.22
2017-09-10T02:37:30.893Z,62.6
2017-09-10T02:38:11.348Z,62.51
2017-09-10T02:38:51.809Z,62.41
2017-09-10T02:39:32.266Z,62.51
2017-09-10T02:40:12.716Z,62.41
2017-09-10T02:40:53.164Z,62.41
2017-09-10T02:41:33.627Z,62.22
2017-09-10T02:42:14.085Z,62.45
2017-09-10T02:42:54.543Z,62.35
2017-09-10T02:43:35.002Z,62.45
2017-09-10T02:44:15.453Z,62.35
2017-09-10T02:44:55.914Z,62.25
2017-09-10T02:45:36.374Z,62.15
2017-09-10T02:46:16.831Z,62.25
2017-09-10T02:46:57.296Z,62.15
2017-09-10T02:47:37.751Z,62.15
2017-09-10T02:48:18.203Z,62.15
2017-09-10T02:48:58.666Z,62.25
2017-09-10T02:49:39.113Z,62.06
2017-09-10T02:50:19.561Z,62.45
2017-09-10T02:51:00.022Z,62.25
2017-09-10T02:51:40.475Z,62.15
2017-09-10T02:52:20.930Z,62.45
2017-09-10T02:53:01.379Z,62.06
2017-09-10T02:53:41.865Z,62.15
2017-09-10T02:54:22.279Z,62.15
2017-09-10T02:55:02.734Z,62.45
2017-09-10T02:55:43.199Z,62.15
2017-09-10T02:56:23.662Z,62.45
2017-09-10T02:57:04.112Z,62.25
2017-09-10T02:57:44.567Z,62.06
2017-09-10T02:58:25.021Z,62.15
2017-09-10T02:59:05.475Z,62.45
2017-09-10T02:59:45.935Z,62.63
2017-09-10T03:00:26.386Z,62.63
2017-09-10T03:01:06.842Z,62.41
2017-09-10T03:01:47.300Z,62.41
2017-09-10T03:02:27.750Z,62.51
2017-09-10T03:03:08.208Z,62.32
2017-09-10T03:03:48.670Z,62.41
2017-09-10T03:04:29.122Z,62.51
2017-09-10T03:05:09.578Z,62.6
2017-09-10T03:05:50.039Z,62.7
2017-09-10T03:06:30.493Z,62.8
2017-09-10T03:07:10.949Z,62.7
2017-09-10T03:07:51.406Z,62.51
2017-09-10T03:08:31.861Z,62.8
2017-09-10T03:09:12.331Z,62.6
2017-09-10T03:09:52.780Z,62.51
2017-09-10T03:10:33.239Z,62.51
2017-09-10T03:11:13.698Z,62.41
2017-09-10T03:11:54.152Z,62.7
2017-09-10T03:12:34.601Z,62.6
2017-09-10T03:13:15.054Z,62.8
2017-09-10T03:13:55.507Z,62.6
2017-09-10T03:14:35.966Z,62.6
2017-09-10T03:15:16.417Z,62.7
2017-09-10T03:15:56.881Z,62.6
2017-09-10T03:16:37.327Z,62.6
2017-09-10T03:17:17.784Z,62.41
2017-09-10T03:17:58.241Z,62.41
2017-09-10T03:18:38.697Z,62.6
2017-09-10T03:19:19.154Z,62.41
2017-09-10T03:19:59.615Z,62.6
2017-09-10T03:20:40.070Z,62.41
2017-09-10T03:21:20.520Z,62.41
2017-09-10T03:22:00.978Z,62.41
2017-09-10T03:22:41.429Z,62.63
2017-09-10T03:23:21.889Z,62.45
2017-09-10T03:24:02.343Z,62.54
2017-09-10T03:24:42.798Z,62.32
2017-09-10T03:25:23.237Z,62.35
2017-09-10T03:26:03.690Z,62.54
2017-09-10T03:26:44.153Z,62.45
2017-09-10T03:27:24.672Z,62.45
2017-09-10T03:28:05.124Z,62.54
2017-09-10T03:28:45.588Z,62.45
2017-09-10T03:29:26.118Z,62.45
2017-09-10T03:30:06.569Z,62.54
2017-09-10T03:30:47.039Z,62.51
2017-09-10T03:31:27.567Z,62.54
2017-09-10T03:32:08.024Z,62.35
2017-09-10T03:32:48.471Z,62.41
2017-09-10T03:33:28.972Z,62.41
2017-09-10T03:34:09.420Z,62.51
2017-09-10T03:34:49.887Z,62.41
2017-09-10T03:35:30.337Z,62.6
2017-09-10T03:36:10.790Z,62.7
2017-09-10T03:36:51.235Z,62.6
2017-09-10T03:37:31.683Z,62.7
2017-09-10T03:38:12.129Z,62.41
2017-09-10T03:38:52.578Z,62.6
2017-09-10T03:39:33.033Z,62.45
2017-09-10T03:40:13.487Z,62.41
2017-09-10T03:40:53.945Z,62.32
2017-09-10T03:41:34.392Z,62.45
2017-09-10T03:42:14.851Z,62.54
2017-09-10T03:42:55.304Z,62.6
2017-09-10T03:43:35.776Z,62.41
2017-09-10T03:44:16.216Z,62.35
2017-09-10T03:44:56.670Z,62.45
2017-09-10T03:45:37.111Z,62.35
2017-09-10T03:46:17.581Z,62.54
2017-09-10T03:46:58.041Z,62.54
2017-09-10T03:47:38.491Z,62.35
2017-09-10T03:48:18.947Z,62.54
2017-09-10T03:48:59.407Z,62.45
2017-09-10T03:49:39.857Z,62.45
2017-09-10T03:50:20.306Z,62.35
2017-09-10T03:51:00.766Z,62.35
2017-09-10T03:51:41.221Z,62.63
2017-09-10T03:52:21.677Z,62.35
2017-09-10T03:53:02.172Z,62.41
2017-09-10T03:53:42.640Z,62.32
2017-09-10T03:54:23.102Z,62.41
2017-09-10T03:55:03.547Z,62.6
2017-09-10T03:55:44.006Z,62.8
2017-09-10T03:56:24.461Z,62.6
2017-09-10T03:57:04.919Z,62.45
2017-09-10T03:57:45.376Z,62.45
2017-09-10T03:58:25.827Z,62.45
2017-09-10T03:59:06.284Z,62.54
2017-09-10T03:59:46.739Z,62.35
2017-09-10T04:00:27.198Z,62.54
2017-09-10T04:01:07.650Z,62.45
2017-09-10T04:01:48.108Z,62.45
2017-09-10T04:02:28.569Z,62.25
2017-09-10T04:03:09.025Z,62.25
2017-09-10T04:03:49.476Z,62.25
2017-09-10T04:04:29.928Z,62.45
2017-09-10T04:05:10.380Z,62.54
2017-09-10T04:05:50.828Z,62.25
2017-09-10T04:06:31.270Z,61.96
2017-09-10T04:07:11.731Z,62.15
2017-09-10T04:07:52.167Z,62.06
2017-09-10T04:08:32.637Z,61.77
2017-09-10T04:09:13.093Z,61.77
2017-09-10T04:09:53.547Z,61.87
2017-09-10T04:10:34.003Z,61.87
2017-09-10T04:11:14.454Z,61.77
2017-09-10T04:11:54.911Z,62.06
2017-09-10T04:12:35.365Z,61.87
2017-09-10T04:13:15.822Z,62.06
2017-09-10T04:13:56.288Z,61.96
2017-09-10T04:14:36.750Z,61.68
2017-09-10T04:15:17.205Z,61.96
2017-09-10T04:15:57.682Z,62.06
2017-09-10T04:16:38.106Z,61.99
2017-09-10T04:17:18.562Z,61.9
2017-09-10T04:17:59.019Z,61.38
2017-09-10T04:18:39.470Z,61.48
2017-09-10T04:19:19.922Z,61.8
2017-09-10T04:20:00.378Z,61.77
2017-09-10T04:20:40.828Z,61.71
2017-09-10T04:21:21.296Z,61.61
2017-09-10T04:22:01.753Z,61.51
2017-09-10T04:22:42.198Z,61.51
2017-09-10T04:23:22.659Z,61.32
2017-09-10T04:24:03.114Z,61.13
2017-09-10T04:24:43.563Z,61.13
2017-09-10T04:25:24.029Z,61.13
2017-09-10T04:26:04.473Z,61.13
2017-09-10T04:26:44.928Z,61.22
2017-09-10T04:27:25.393Z,61.32
2017-09-10T04:28:05.854Z,61.51
2017-09-10T04:28:46.315Z,61.22
2017-09-10T04:29:26.784Z,61.22
2017-09-10T04:30:07.231Z,61.13
2017-09-10T04:30:47.684Z,61.32
2017-09-10T04:31:28.141Z,61.51
2017-09-10T04:32:08.595Z,61.41
2017-09-10T04:32:49.048Z,61.22
2017-09-10T04:33:29.658Z,61.41
2017-09-10T04:34:10.115Z,61.22
2017-09-10T04:34:50.576Z,61.41
2017-09-10T04:35:31.029Z,61.41
2017-09-10T04:36:11.484Z,61.32
2017-09-10T04:36:51.943Z,61.51
2017-09-10T04:37:32.399Z,61.22
2017-09-10T04:38:12.849Z,61.51
2017-09-10T04:38:53.303Z,61.22
2017-09-10T04:39:33.883Z,61.41
2017-09-10T04:40:14.307Z,61.41
2017-09-10T04:40:54.763Z,61.51
2017-09-10T04:41:35.248Z,61.22
2017-09-10T04:42:15.711Z,61.22
2017-09-10T04:42:56.168Z,61.32
2017-09-10T04:43:36.635Z,61.41
2017-09-10T04:44:17.088Z,61.41
2017-09-10T04:44:57.543Z,61.41
2017-09-10T04:45:38.005Z,61.32
2017-09-10T04:46:18.455Z,61.41
2017-09-10T04:46:58.916Z,61.32
2017-09-10T04:47:39.364Z,61.51
2017-09-10T04:48:19.803Z,61.41
2017-09-10T04:49:00.258Z,61.41
2017-09-10T04:49:40.726Z,61.41
2017-09-10T04:50:21.182Z,61.41
2017-09-10T04:51:01.641Z,61.32
2017-09-10T04:51:42.109Z,61.41
2017-09-10T04:52:22.561Z,61.03
2017-09-10T04:53:03.016Z,61.41
2017-09-10T04:53:43.470Z,61.06
2017-09-10T04:54:23.920Z,61.16
2017-09-10T04:55:04.382Z,61.03
2017-09-10T04:55:44.838Z,61.32
2017-09-10T04:56:25.300Z,61.44
2017-09-10T04:57:05.748Z,61.32
2017-09-10T04:57:46.198Z,61.22
2017-09-10T04:58:26.749Z,61.16
2017-09-10T04:59:07.240Z,61.22
2017-09-10T04:59:47.884Z,61.03
2017-09-10T05:00:28.326Z,61.44
2017-09-10T05:01:08.776Z,61.22
2017-09-10T05:01:49.591Z,61.32
2017-09-10T05:02:30.541Z,61.16
2017-09-10T05:03:10.992Z,61.13
2017-09-10T05:03:51.461Z,61.44
2017-09-10T05:04:31.914Z,61.32
2017-09-10T05:05:12.432Z,61.54
2017-09-10T05:05:52.884Z,61.44
2017-09-10T05:06:33.350Z,61.54
2017-09-10T05:07:13.810Z,61.32
2017-09-10T05:07:54.248Z,61.25
2017-09-10T05:08:34.701Z,61.25
2017-09-10T05:09:15.157Z,61.44
2017-09-10T05:09:55.610Z,61.35
2017-09-10T05:10:36.072Z,61.41
2017-09-10T05:11:16.524Z,61.35
2017-09-10T05:11:56.972Z,61.32
2017-09-10T05:12:37.427Z,61.35
2017-09-10T05:13:17.886Z,61.41
2017-09-10T05:13:58.347Z,61.32
2017-09-10T05:14:38.806Z,61.32
2017-09-10T05:15:19.262Z,61.32
2017-09-10T05:15:59.717Z,61.32
2017-09-10T05:16:40.175Z,61.35
2017-09-10T05:17:20.627Z,61.22
2017-09-10T05:18:01.208Z,61.06
2017-09-10T05:18:41.621Z,61.41
2017-09-10T05:19:22.078Z,60.86
2017-09-10T05:20:02.693Z,60.77
2017-09-10T05:20:43.199Z,61.13
2017-09-10T05:21:23.654Z,61.06
2017-09-10T05:22:04.216Z,60.77
2017-09-10T05:22:44.599Z,60.74
2017-09-10T05:23:25.054Z,60.93
2017-09-10T05:24:05.509Z,60.64
2017-09-10T05:24:45.985Z,60.86
2017-09-10T05:25:26.450Z,60.96
2017-09-10T05:26:06.976Z,60.83
2017-09-10T05:26:47.437Z,60.74
2017-09-10T05:27:27.884Z,60.96
2017-09-10T05:28:08.341Z,60.83
2017-09-10T05:28:48.804Z,60.83
2017-09-10T05:29:29.263Z,60.83
2017-09-10T05:30:09.718Z,60.93
2017-09-10T05:30:50.178Z,61.06
2017-09-10T05:31:30.639Z,60.83
2017-09-10T05:32:11.094Z,60.86
2017-09-10T05:32:51.542Z,60.93
2017-09-10T05:33:31.993Z,61.06
2017-09-10T05:34:12.469Z,60.96
2017-09-10T05:34:52.904Z,60.96
2017-09-10T05:35:33.358Z,61.06
2017-09-10T05:36:13.812Z,60.96
2017-09-10T05:36:54.259Z,60.96
2017-09-10T05:37:34.746Z,60.77
2017-09-10T05:38:15.213Z,61.06
2017-09-10T05:38:55.669Z,60.96
2017-09-10T05:39:36.123Z,61.06
2017-09-10T05:40:16.634Z,60.96
2017-09-10T05:40:57.097Z,60.96
2017-09-10T05:41:37.666Z,60.77
2017-09-10T05:42:18.121Z,60.77
2017-09-10T05:42:58.578Z,60.86
2017-09-10T05:43:39.035Z,60.68
2017-09-10T05:44:19.498Z,60.77
2017-09-10T05:44:59.949Z,61.13
2017-09-10T05:45:40.407Z,60.96
2017-09-10T05:46:20.866Z,61.06
2017-09-10T05:47:01.393Z,60.86
2017-09-10T05:47:41.812Z,60.93
2017-09-10T05:48:22.260Z,60.64
2017-09-10T05:49:02.717Z,60.93
2017-09-10T05:49:43.177Z,60.19
2017-09-10T05:50:23.630Z,60.93
2017-09-10T05:51:04.085Z,60.93
2017-09-10T05:51:44.545Z,60.96
2017-09-10T05:52:25.002Z,61.06
2017-09-10T05:53:05.450Z,60.86
2017-09-10T05:53:45.915Z,60.55
2017-09-10T05:54:26.382Z,61.03
2017-09-10T05:55:06.833Z,60.68
2017-09-10T05:55:47.282Z,61.16
2017-09-10T05:56:27.738Z,60.64
2017-09-10T05:57:08.199Z,60.96
2017-09-10T05:57:48.652Z,60.68
2017-09-10T05:58:29.081Z,61.06
2017-09-10T05:59:09.541Z,61.03
2017-09-10T05:59:49.994Z,61.06
2017-09-10T06:00:30.441Z,60.86
2017-09-10T06:01:10.912Z,60.64
2017-09-10T06:01:51.355Z,60.55
2017-09-10T06:02:31.810Z,60.48
2017-09-10T06:03:12.281Z,60.38
2017-09-10T06:03:52.742Z,60.38
2017-09-10T06:04:33.197Z,60.48
2017-09-10T06:05:13.654Z,60.68
2017-09-10T06:05:54.108Z,60.48
2017-09-10T06:06:34.565Z,60.38
2017-09-10T06:07:15.011Z,60.48
2017-09-10T06:07:55.465Z,60.48
2017-09-10T06:08:35.953Z,60.58
2017-09-10T06:09:16.457Z,60.58
2017-09-10T06:09:56.880Z,60.28
2017-09-10T06:10:37.336Z,60.48
2017-09-10T06:11:17.839Z,60.48
2017-09-10T06:11:58.338Z,60.68
2017-09-10T06:12:38.793Z,60.48
2017-09-10T06:13:19.268Z,60.58
2017-09-10T06:13:59.713Z,60.38
2017-09-10T06:14:40.173Z,60.58
2017-09-10T06:15:20.622Z,60.38
2017-09-10T06:16:01.079Z,60
2017-09-10T06:16:41.546Z,60
2017-09-10T06:17:21.999Z,60
2017-09-10T06:19:14.609Z,60.1
2017-09-10T06:19:55.106Z,60.19
2017-09-10T06:20:35.560Z,60.1
2017-09-10T06:21:16.014Z,60
2017-09-10T06:21:56.500Z,59.9
2017-09-10T06:22:36.954Z,60
2017-09-10T06:24:54.812Z,59.9
2017-09-10T06:25:35.357Z,60
2017-09-10T06:26:15.815Z,60
2017-09-10T06:26:56.282Z,60
2017-09-10T06:27:36.722Z,59.8
2017-09-10T06:28:17.238Z,59.52
2017-09-10T06:28:57.691Z,59.8
2017-09-10T06:29:38.144Z,60.48
2017-09-10T06:30:18.602Z,59.71
2017-09-10T06:30:59.054Z,59.71
2017-09-10T06:31:39.522Z,59.61
2017-09-10T06:32:19.978Z,59.71
2017-09-10T06:33:00.437Z,59.9
2017-09-10T06:33:40.884Z,59.8
2017-09-10T06:34:21.336Z,59.61
2017-09-10T06:35:01.793Z,59.42
2017-09-10T06:35:42.252Z,59.52
2017-09-10T06:36:22.700Z,59.61
2017-09-10T06:37:03.356Z,59.61
2017-09-10T06:37:43.813Z,59.71
2017-09-10T06:38:24.261Z,59.8
2017-09-10T06:39:04.709Z,59.71
2017-09-10T06:39:45.175Z,59.8
2017-09-10T06:40:25.615Z,59.52
2017-09-10T06:41:06.077Z,59.52
2017-09-10T06:41:46.527Z,59.61
2017-09-10T06:42:26.990Z,59.52
2017-09-10T06:43:07.475Z,59.61
2017-09-10T06:43:47.935Z,59.61
2017-09-10T06:44:28.383Z,59.52
2017-09-10T06:46:26.187Z,59.03
2017-09-10T06:47:06.630Z,59.03
2017-09-10T06:47:47.079Z,59.13
2017-09-10T06:48:27.538Z,58.77
2017-09-10T06:49:07.990Z,59.03
2017-09-10T06:49:48.439Z,59.03
2017-09-10T06:50:28.892Z,59.25
2017-09-10T06:51:09.344Z,59.13
2017-09-10T06:51:49.819Z,59.13
2017-09-10T06:52:30.262Z,59.13
2017-09-10T06:53:10.732Z,59.03
2017-09-10T06:55:08.506Z,59.03
2017-09-10T06:55:48.954Z,59.13
2017-09-10T06:56:29.407Z,59.03
2017-09-10T06:57:09.867Z,59.13
2017-09-10T06:57:50.315Z,58.65
2017-09-10T06:58:30.771Z,58.65
2017-09-10T06:59:11.217Z,58.75
2017-09-10T06:59:51.668Z,58.75
2017-09-10T07:00:32.121Z,58.75
2017-09-10T07:01:12.592Z,58.36
2017-09-10T07:01:53.041Z,58.26
2017-09-10T07:02:33.497Z,58.45
2017-09-10T07:03:13.967Z,58.65
2017-09-10T07:03:54.433Z,58.45
2017-09-10T07:04:34.858Z,58.55
2017-09-10T07:05:15.306Z,58.45
2017-09-10T07:05:55.856Z,58.77
2017-09-10T07:06:36.308Z,58.65
2017-09-10T07:07:16.761Z,58.58
2017-09-10T07:07:57.209Z,58.19
2017-09-10T07:08:37.656Z,58.29
2017-09-10T07:09:18.116Z,58.07
2017-09-10T07:09:58.560Z,58.39
2017-09-10T07:10:38.989Z,58.45
2017-09-10T07:11:19.433Z,58.75
2017-09-10T07:11:59.896Z,58.45
2017-09-10T07:12:40.351Z,58.45
2017-09-10T07:13:20.801Z,58.65
2017-09-10T07:14:01.259Z,58.45
2017-09-10T07:14:41.711Z,58.26
2017-09-10T07:15:22.162Z,58.45
2017-09-10T07:16:02.614Z,58.45
2017-09-10T07:16:43.062Z,58.68
2017-09-10T07:17:23.536Z,58.07
2017-09-10T07:19:11.548Z,58.29
2017-09-10T07:19:52.002Z,57.71
2017-09-10T07:20:32.458Z,57.9
2017-09-10T07:21:12.889Z,57.71
2017-09-10T07:21:53.383Z,57.81
2017-09-10T07:22:33.777Z,57.62
2017-09-10T07:23:14.229Z,58
2017-09-10T07:23:54.703Z,57.81
2017-09-10T07:24:35.240Z,57.62
2017-09-10T07:25:15.688Z,57.81
2017-09-10T07:25:56.138Z,57.32
2017-09-10T07:26:36.584Z,57.32
2017-09-10T07:27:17.023Z,57.42
2017-09-10T07:27:57.471Z,57.62
2017-09-10T07:28:37.903Z,57.64
2017-09-10T07:29:18.337Z,57.74
2017-09-10T07:29:58.788Z,57.16
2017-09-10T07:30:39.231Z,57.06
2017-09-10T07:31:19.686Z,56.87
2017-09-10T07:32:00.129Z,56.87
2017-09-10T07:32:40.930Z,57.06
2017-09-10T07:33:21.320Z,56.87
2017-09-10T07:34:01.764Z,56.87
2017-09-10T07:34:42.217Z,56.68
2017-09-10T07:36:39.885Z,56.77
2017-09-10T07:38:57.759Z,56.87
2017-09-10T07:39:38.212Z,56.96
2017-09-10T07:40:18.673Z,57.16
2017-09-10T07:40:59.125Z,56.96
2017-09-10T07:41:39.578Z,56.77
2017-09-10T07:42:20.037Z,56.58
2017-09-10T07:43:00.492Z,56.58
2017-09-10T07:43:40.933Z,56.29
2017-09-10T07:44:21.497Z,56.26
2017-09-10T07:45:01.825Z,56.56
2017-09-10T07:45:42.249Z,56.56
2017-09-10T07:46:22.732Z,56.56
2017-09-10T07:47:03.454Z,56.46
2017-09-10T07:47:43.945Z,56.84
2017-09-10T07:48:24.441Z,56.84
2017-09-10T07:49:05.090Z,56.94
2017-09-10T07:49:45.555Z,56.74
2017-09-10T07:50:26.030Z,56.84
2017-09-10T07:51:06.656Z,56.94
2017-09-10T07:51:47.107Z,56.72
2017-09-10T07:52:27.551Z,56.84
2017-09-10T07:53:08.358Z,57.29
2017-09-10T07:53:49.005Z,56.62
2017-09-10T07:54:29.452Z,57.32
2017-09-10T07:55:09.983Z,57.01
2017-09-10T07:55:50.460Z,57.1
2017-09-10T07:56:31.000Z,57.2
2017-09-10T07:57:11.923Z,57.1
2017-09-10T07:57:52.367Z,56.91
2017-09-10T07:58:32.839Z,57.01
2017-09-10T07:59:13.283Z,57.01
2017-09-10T07:59:53.779Z,57.01
2017-09-10T08:01:46.391Z,56.81
2017-09-10T08:02:26.815Z,57.01
2017-09-10T08:03:07.274Z,57.01
2017-09-10T08:03:47.747Z,56.81
2017-09-10T08:04:28.198Z,56.62
2017-09-10T08:05:08.686Z,56.72
2017-09-10T08:05:49.321Z,57.1
2017-09-10T08:06:29.785Z,56.43
2017-09-10T08:07:10.261Z,56.43
2017-09-10T08:07:50.727Z,56.24
2017-09-10T08:08:31.164Z,56.46
2017-09-10T08:09:11.616Z,56.43
2017-09-10T08:09:52.145Z,56.33
2017-09-10T08:10:32.610Z,56.04
2017-09-10T08:11:13.105Z,55.98
2017-09-10T08:11:53.554Z,55.98
2017-09-10T08:12:34.006Z,56.26
2017-09-10T08:13:14.470Z,56.26
2017-09-10T08:13:54.930Z,56.26
2017-09-10T08:14:35.389Z,55.68
2017-09-10T08:15:15.844Z,55.49
2017-09-10T08:15:56.293Z,55.4
2017-09-10T08:16:36.745Z,55.4
2017-09-10T08:17:17.190Z,55.88
2017-09-10T08:17:57.640Z,55.2
2017-09-10T08:18:38.106Z,55.4
2017-09-10T08:19:18.563Z,55.2
2017-09-10T08:19:59.034Z,55.62
2017-09-10T08:20:39.452Z,55.49
2017-09-10T08:22:57.359Z,55.13
2017-09-10T08:23:37.800Z,54.84
2017-09-10T08:24:18.270Z,54.94
2017-09-10T08:24:58.723Z,54.62
2017-09-10T08:25:39.182Z,54.91
2017-09-10T08:26:19.625Z,55.4
2017-09-10T08:27:00.097Z,55.4
2017-09-10T08:27:40.541Z,55.01
2017-09-10T08:28:20.998Z,54.91
2017-09-10T08:29:01.440Z,54.72
2017-09-10T08:29:42.029Z,54.72
2017-09-10T08:30:22.496Z,54.94
2017-09-10T08:31:02.968Z,54.84
2017-09-10T08:31:43.405Z,54.84
2017-09-10T08:32:23.945Z,54.84
2017-09-10T08:33:04.381Z,54.84
2017-09-10T08:33:44.830Z,54.84
2017-09-10T08:34:25.279Z,54.94
2017-09-10T08:35:05.728Z,54.94
2017-09-10T08:35:46.172Z,54.84
2017-09-10T08:36:26.740Z,54.75
2017-09-10T08:37:07.138Z,54.84
2017-09-10T08:37:47.589Z,54.94
2017-09-10T08:38:28.055Z,54.84
2017-09-10T08:39:08.617Z,54.97
2017-09-10T08:39:49.080Z,54.49
2017-09-10T08:40:29.531Z,54.19
2017-09-10T08:41:10.013Z,54.19
2017-09-10T08:41:50.469Z,54.19
2017-09-10T08:42:30.937Z,54.29
2017-09-10T08:43:11.402Z,54.1
2017-09-10T08:43:51.852Z,54
2017-09-10T08:46:04.902Z,54.1
2017-09-10T08:46:45.347Z,54.29
2017-09-10T08:47:25.801Z,54.29
2017-09-10T08:48:06.253Z,53.91
2017-09-10T08:48:46.727Z,53.91
2017-09-10T08:49:27.205Z,54.19
2017-09-10T08:50:07.669Z,54.13
2017-09-10T08:50:48.207Z,53.91
2017-09-10T08:51:28.603Z,54
2017-09-10T08:52:09.063Z,53.93
2017-09-10T08:52:49.515Z,53.93
2017-09-10T08:53:29.975Z,54.03
2017-09-10T08:54:10.420Z,54.03
2017-09-10T08:54:50.872Z,54.19
2017-09-10T08:55:31.602Z,54.13
2017-09-10T08:56:12.008Z,54.03
2017-09-10T08:56:52.699Z,54.03
2017-09-10T08:57:33.143Z,54.1
2017-09-10T08:58:13.683Z,54.22
2017-09-10T09:00:06.555Z,54.77
2017-09-10T09:00:47.009Z,54.41
2017-09-10T09:02:59.781Z,55.07